sensor_id;sensor_type;location;lat;lon;timestamp;P1;durP1;ratioP1;P2;durP2;ratioP2
1082;SDS011;530;51.448;7.238;2022-07-29T00:02:23;2.00;;;1.47;;
1082;SDS011;530;51.448;7.238;2022-07-29T00:04:49;5.70;;;1.90;;
1082;SDS011;530;51.448;7.238;2022-07-29T00:07:14;6.07;;;1.80;;
1082;SDS011;530;51.448;7.238;2022-07-29T00:09:40;3.90;;;1.80;;
1082;SDS011;530;51.448;7.238;2022-07-29T00:12:06;2.83;;;1.80;;
1082;SDS011;530;51.448;7.238;2022-07-29T00:14:32;3.83;;;1.90;;
1082;SDS011;530;51.448;7.238;2022-07-29T00:16:57;4.70;;;2.30;;
1082;SDS011;530;51.448;7.238;2022-07-29T00:19:23;4.30;;;1.47;;
1082;SDS011;530;51.448;7.238;2022-07-29T00:21:49;5.00;;;1.73;;
1082;SDS011;530;51.448;7.238;2022-07-29T00:24:14;3.10;;;1.67;;
1082;SDS011;530;51.448;7.238;2022-07-29T00:26:40;4.07;;;1.63;;
1082;SDS011;530;51.448;7.238;2022-07-29T00:29:06;2.20;;;1.73;;
1082;SDS011;530;51.448;7.238;2022-07-29T00:31:31;4.47;;;1.90;;
1082;SDS011;530;51.448;7.238;2022-07-29T00:33:57;3.60;;;1.80;;
1082;SDS011;530;51.448;7.238;2022-07-29T00:36:23;3.77;;;2.10;;
1082;SDS011;530;51.448;7.238;2022-07-29T00:38:49;2.23;;;1.90;;
1082;SDS011;530;51.448;7.238;2022-07-29T00:41:15;4.07;;;1.87;;
1082;SDS011;530;51.448;7.238;2022-07-29T00:43:42;3.30;;;1.70;;
1082;SDS011;530;51.448;7.238;2022-07-29T00:46:08;2.50;;;1.73;;
1082;SDS011;530;51.448;7.238;2022-07-29T00:48:34;4.23;;;1.80;;
1082;SDS011;530;51.448;7.238;2022-07-29T00:51:01;1.93;;;1.40;;
1082;SDS011;530;51.448;7.238;2022-07-29T00:53:29;6.43;;;1.80;;
1082;SDS011;530;51.448;7.238;2022-07-29T00:55:56;3.23;;;1.60;;
1082;SDS011;530;51.448;7.238;2022-07-29T00:58:23;3.57;;;1.80;;
1082;SDS011;530;51.448;7.238;2022-07-29T01:00:49;2.83;;;1.60;;
1082;SDS011;530;51.448;7.238;2022-07-29T01:03:15;5.30;;;2.30;;
1082;SDS011;530;51.448;7.238;2022-07-29T01:05:41;2.90;;;1.80;;
1082;SDS011;530;51.448;7.238;2022-07-29T01:08:10;3.37;;;1.90;;
1082;SDS011;530;51.448;7.238;2022-07-29T01:10:37;2.20;;;1.80;;
1082;SDS011;530;51.448;7.238;2022-07-29T01:13:04;2.53;;;2.00;;
1082;SDS011;530;51.448;7.238;2022-07-29T01:15:31;5.33;;;2.10;;
1082;SDS011;530;51.448;7.238;2022-07-29T01:18:10;4.20;;;1.87;;
1082;SDS011;530;51.448;7.238;2022-07-29T01:23:46;4.87;;;1.87;;
1082;SDS011;530;51.448;7.238;2022-07-29T01:31:47;2.13;;;1.70;;
1082;SDS011;530;51.448;7.238;2022-07-29T01:34:18;5.60;;;1.60;;
1082;SDS011;530;51.448;7.238;2022-07-29T01:36:50;2.73;;;1.70;;
1082;SDS011;530;51.448;7.238;2022-07-29T01:39:23;2.20;;;1.30;;
1082;SDS011;530;51.448;7.238;2022-07-29T01:44:40;2.67;;;1.97;;
1082;SDS011;530;51.448;7.238;2022-07-29T01:47:23;9.10;;;2.30;;
1082;SDS011;530;51.448;7.238;2022-07-29T01:49:56;3.07;;;1.90;;
1082;SDS011;530;51.448;7.238;2022-07-29T01:52:31;2.70;;;1.50;;
1082;SDS011;530;51.448;7.238;2022-07-29T01:55:03;4.83;;;2.07;;
1082;SDS011;530;51.448;7.238;2022-07-29T01:57:34;6.90;;;2.20;;
1082;SDS011;530;51.448;7.238;2022-07-29T02:00:03;5.77;;;1.70;;
1082;SDS011;530;51.448;7.238;2022-07-29T02:02:30;5.90;;;2.00;;
1082;SDS011;530;51.448;7.238;2022-07-29T02:04:58;1.87;;;1.67;;
1082;SDS011;530;51.448;7.238;2022-07-29T02:07:27;2.30;;;1.67;;
1082;SDS011;530;51.448;7.238;2022-07-29T02:09:55;2.57;;;1.97;;
1082;SDS011;530;51.448;7.238;2022-07-29T02:12:23;2.40;;;2.20;;
1082;SDS011;530;51.448;7.238;2022-07-29T02:14:53;3.43;;;1.97;;
1082;SDS011;530;51.448;7.238;2022-07-29T02:17:22;3.20;;;1.97;;
1082;SDS011;530;51.448;7.238;2022-07-29T02:19:51;3.90;;;2.20;;
1082;SDS011;530;51.448;7.238;2022-07-29T02:22:22;2.43;;;2.23;;
1082;SDS011;530;51.448;7.238;2022-07-29T02:24:50;5.07;;;1.90;;
1082;SDS011;530;51.448;7.238;2022-07-29T02:27:17;2.37;;;1.80;;
1082;SDS011;530;51.448;7.238;2022-07-29T02:29:45;8.50;;;2.40;;
1082;SDS011;530;51.448;7.238;2022-07-29T02:32:12;3.60;;;2.00;;
1082;SDS011;530;51.448;7.238;2022-07-29T02:34:41;9.40;;;1.60;;
1082;SDS011;530;51.448;7.238;2022-07-29T02:37:11;2.90;;;1.90;;
1082;SDS011;530;51.448;7.238;2022-07-29T02:39:38;12.13;;;2.37;;
1082;SDS011;530;51.448;7.238;2022-07-29T02:42:07;5.23;;;2.27;;
1082;SDS011;530;51.448;7.238;2022-07-29T02:44:37;3.10;;;1.93;;
1082;SDS011;530;51.448;7.238;2022-07-29T02:47:08;3.30;;;2.30;;
1082;SDS011;530;51.448;7.238;2022-07-29T02:55:10;3.80;;;2.07;;
1082;SDS011;530;51.448;7.238;2022-07-29T02:57:46;3.70;;;1.97;;
1082;SDS011;530;51.448;7.238;2022-07-29T03:00:19;3.33;;;1.70;;
1082;SDS011;530;51.448;7.238;2022-07-29T03:02:50;3.90;;;2.00;;
1082;SDS011;530;51.448;7.238;2022-07-29T03:05:20;5.13;;;2.20;;
1082;SDS011;530;51.448;7.238;2022-07-29T03:07:49;2.67;;;1.90;;
1082;SDS011;530;51.448;7.238;2022-07-29T03:10:20;3.23;;;1.90;;
1082;SDS011;530;51.448;7.238;2022-07-29T03:12:46;5.47;;;2.10;;
1082;SDS011;530;51.448;7.238;2022-07-29T03:15:13;5.67;;;2.20;;
1082;SDS011;530;51.448;7.238;2022-07-29T03:17:39;3.00;;;1.83;;
1082;SDS011;530;51.448;7.238;2022-07-29T03:20:07;2.27;;;1.97;;
1082;SDS011;530;51.448;7.238;2022-07-29T03:22:38;2.40;;;2.00;;
1082;SDS011;530;51.448;7.238;2022-07-29T03:25:09;6.17;;;2.00;;
1082;SDS011;530;51.448;7.238;2022-07-29T03:27:36;5.13;;;2.27;;
1082;SDS011;530;51.448;7.238;2022-07-29T03:30:02;4.40;;;2.13;;
1082;SDS011;530;51.448;7.238;2022-07-29T03:32:28;10.03;;;2.90;;
1082;SDS011;530;51.448;7.238;2022-07-29T03:34:54;3.90;;;2.93;;
1082;SDS011;530;51.448;7.238;2022-07-29T03:37:19;2.70;;;1.90;;
1082;SDS011;530;51.448;7.238;2022-07-29T03:39:45;2.70;;;1.97;;
1082;SDS011;530;51.448;7.238;2022-07-29T03:42:13;5.20;;;2.17;;
1082;SDS011;530;51.448;7.238;2022-07-29T03:44:41;3.17;;;1.80;;
1082;SDS011;530;51.448;7.238;2022-07-29T03:47:10;3.07;;;1.90;;
1082;SDS011;530;51.448;7.238;2022-07-29T03:49:38;3.57;;;1.93;;
1082;SDS011;530;51.448;7.238;2022-07-29T03:52:05;4.90;;;2.70;;
1082;SDS011;530;51.448;7.238;2022-07-29T03:54:32;3.47;;;2.27;;
1082;SDS011;530;51.448;7.238;2022-07-29T03:56:59;3.90;;;2.10;;
1082;SDS011;530;51.448;7.238;2022-07-29T03:59:27;5.43;;;2.30;;
1082;SDS011;530;51.448;7.238;2022-07-29T04:01:55;5.00;;;2.33;;
1082;SDS011;530;51.448;7.238;2022-07-29T04:04:22;4.40;;;2.43;;
1082;SDS011;530;51.448;7.238;2022-07-29T04:06:47;3.60;;;2.37;;
1082;SDS011;530;51.448;7.238;2022-07-29T04:09:13;2.90;;;2.37;;
1082;SDS011;530;51.448;7.238;2022-07-29T04:11:40;4.97;;;1.90;;
1082;SDS011;530;51.448;7.238;2022-07-29T04:14:06;2.93;;;1.87;;
1082;SDS011;530;51.448;7.238;2022-07-29T04:16:32;3.47;;;2.23;;
1082;SDS011;530;51.448;7.238;2022-07-29T04:18:58;4.40;;;2.10;;
1082;SDS011;530;51.448;7.238;2022-07-29T04:21:24;2.77;;;2.20;;
1082;SDS011;530;51.448;7.238;2022-07-29T04:23:50;3.30;;;2.10;;
1082;SDS011;530;51.448;7.238;2022-07-29T04:26:16;7.00;;;2.30;;
1082;SDS011;530;51.448;7.238;2022-07-29T04:28:42;3.53;;;1.97;;
1082;SDS011;530;51.448;7.238;2022-07-29T04:31:08;3.87;;;2.07;;
1082;SDS011;530;51.448;7.238;2022-07-29T04:33:34;3.67;;;2.27;;
1082;SDS011;530;51.448;7.238;2022-07-29T04:36:00;4.23;;;2.10;;
1082;SDS011;530;51.448;7.238;2022-07-29T04:38:26;3.17;;;2.10;;
1082;SDS011;530;51.448;7.238;2022-07-29T04:40:52;7.30;;;1.90;;
1082;SDS011;530;51.448;7.238;2022-07-29T04:43:17;3.30;;;1.83;;
1082;SDS011;530;51.448;7.238;2022-07-29T04:45:43;2.80;;;1.97;;
1082;SDS011;530;51.448;7.238;2022-07-29T04:48:09;2.80;;;1.97;;
1082;SDS011;530;51.448;7.238;2022-07-29T04:50:37;4.13;;;2.10;;
1082;SDS011;530;51.448;7.238;2022-07-29T04:53:03;2.83;;;1.53;;
1082;SDS011;530;51.448;7.238;2022-07-29T04:55:29;3.97;;;2.10;;
1082;SDS011;530;51.448;7.238;2022-07-29T04:57:54;9.23;;;1.93;;
1082;SDS011;530;51.448;7.238;2022-07-29T05:00:20;5.40;;;2.70;;
1082;SDS011;530;51.448;7.238;2022-07-29T05:02:48;3.87;;;2.00;;
1082;SDS011;530;51.448;7.238;2022-07-29T05:05:14;2.20;;;1.70;;
1082;SDS011;530;51.448;7.238;2022-07-29T05:07:40;2.47;;;2.00;;
1082;SDS011;530;51.448;7.238;2022-07-29T05:10:06;5.73;;;2.30;;
1082;SDS011;530;51.448;7.238;2022-07-29T05:12:32;3.50;;;1.87;;
1082;SDS011;530;51.448;7.238;2022-07-29T05:14:58;5.83;;;2.60;;
1082;SDS011;530;51.448;7.238;2022-07-29T05:17:24;4.60;;;2.07;;
1082;SDS011;530;51.448;7.238;2022-07-29T05:19:50;5.80;;;2.13;;
1082;SDS011;530;51.448;7.238;2022-07-29T05:22:18;3.67;;;2.27;;
1082;SDS011;530;51.448;7.238;2022-07-29T05:24:44;4.00;;;2.40;;
1082;SDS011;530;51.448;7.238;2022-07-29T05:27:10;4.43;;;2.47;;
1082;SDS011;530;51.448;7.238;2022-07-29T05:29:36;4.20;;;1.90;;
1082;SDS011;530;51.448;7.238;2022-07-29T05:32:02;3.47;;;2.40;;
1082;SDS011;530;51.448;7.238;2022-07-29T05:34:28;3.03;;;2.10;;
1082;SDS011;530;51.448;7.238;2022-07-29T05:36:54;3.53;;;2.40;;
1082;SDS011;530;51.448;7.238;2022-07-29T05:39:20;3.13;;;2.20;;
1082;SDS011;530;51.448;7.238;2022-07-29T05:41:46;5.80;;;2.37;;
1082;SDS011;530;51.448;7.238;2022-07-29T05:44:11;4.53;;;2.07;;
1082;SDS011;530;51.448;7.238;2022-07-29T05:46:38;3.87;;;2.40;;
1082;SDS011;530;51.448;7.238;2022-07-29T05:49:04;5.00;;;2.63;;
1082;SDS011;530;51.448;7.238;2022-07-29T05:51:32;7.63;;;2.23;;
1082;SDS011;530;51.448;7.238;2022-07-29T05:53:58;4.43;;;2.30;;
1082;SDS011;530;51.448;7.238;2022-07-29T05:56:24;3.43;;;2.10;;
1082;SDS011;530;51.448;7.238;2022-07-29T05:58:50;5.03;;;2.23;;
1082;SDS011;530;51.448;7.238;2022-07-29T06:01:15;6.73;;;2.20;;
1082;SDS011;530;51.448;7.238;2022-07-29T06:03:41;6.13;;;2.90;;
1082;SDS011;530;51.448;7.238;2022-07-29T06:06:08;4.33;;;2.20;;
1082;SDS011;530;51.448;7.238;2022-07-29T06:08:34;6.07;;;1.73;;
1082;SDS011;530;51.448;7.238;2022-07-29T06:11:01;5.30;;;2.43;;
1082;SDS011;530;51.448;7.238;2022-07-29T06:13:27;2.33;;;2.07;;
1082;SDS011;530;51.448;7.238;2022-07-29T06:15:53;6.83;;;2.60;;
1082;SDS011;530;51.448;7.238;2022-07-29T06:18:18;2.97;;;2.53;;
1082;SDS011;530;51.448;7.238;2022-07-29T06:20:46;6.10;;;2.70;;
1082;SDS011;530;51.448;7.238;2022-07-29T06:23:11;6.10;;;2.90;;
1082;SDS011;530;51.448;7.238;2022-07-29T06:25:39;3.70;;;2.20;;
1082;SDS011;530;51.448;7.238;2022-07-29T06:28:05;4.60;;;2.30;;
1082;SDS011;530;51.448;7.238;2022-07-29T06:30:31;4.33;;;2.70;;
1082;SDS011;530;51.448;7.238;2022-07-29T06:32:57;3.53;;;2.60;;
1082;SDS011;530;51.448;7.238;2022-07-29T06:35:22;4.17;;;2.83;;
1082;SDS011;530;51.448;7.238;2022-07-29T06:37:48;3.00;;;2.47;;
1082;SDS011;530;51.448;7.238;2022-07-29T06:40:14;4.07;;;3.10;;
1082;SDS011;530;51.448;7.238;2022-07-29T06:42:58;5.77;;;2.60;;
1082;SDS011;530;51.448;7.238;2022-07-29T06:45:24;5.03;;;2.93;;
1082;SDS011;530;51.448;7.238;2022-07-29T06:47:50;5.67;;;3.03;;
1082;SDS011;530;51.448;7.238;2022-07-29T06:50:15;3.93;;;2.77;;
1082;SDS011;530;51.448;7.238;2022-07-29T06:52:41;3.93;;;2.77;;
1082;SDS011;530;51.448;7.238;2022-07-29T06:55:07;3.77;;;2.93;;
1082;SDS011;530;51.448;7.238;2022-07-29T06:57:33;3.53;;;2.80;;
1082;SDS011;530;51.448;7.238;2022-07-29T06:59:59;7.23;;;2.83;;
1082;SDS011;530;51.448;7.238;2022-07-29T07:02:25;5.30;;;2.60;;
1082;SDS011;530;51.448;7.238;2022-07-29T07:04:51;4.83;;;2.60;;
1082;SDS011;530;51.448;7.238;2022-07-29T07:07:18;3.70;;;2.40;;
1082;SDS011;530;51.448;7.238;2022-07-29T07:09:43;3.23;;;2.93;;
1082;SDS011;530;51.448;7.238;2022-07-29T07:12:09;5.00;;;2.77;;
1082;SDS011;530;51.448;7.238;2022-07-29T07:14:35;3.73;;;2.83;;
1082;SDS011;530;51.448;7.238;2022-07-29T07:17:00;3.63;;;2.63;;
1082;SDS011;530;51.448;7.238;2022-07-29T07:19:29;4.50;;;3.20;;
1082;SDS011;530;51.448;7.238;2022-07-29T07:21:54;5.83;;;3.63;;
1082;SDS011;530;51.448;7.238;2022-07-29T07:24:20;7.10;;;3.30;;
1082;SDS011;530;51.448;7.238;2022-07-29T07:26:46;4.57;;;3.10;;
1082;SDS011;530;51.448;7.238;2022-07-29T07:29:12;6.40;;;3.30;;
1082;SDS011;530;51.448;7.238;2022-07-29T07:31:38;5.30;;;3.10;;
1082;SDS011;530;51.448;7.238;2022-07-29T07:34:03;4.63;;;2.90;;
1082;SDS011;530;51.448;7.238;2022-07-29T07:36:29;4.40;;;2.60;;
1082;SDS011;530;51.448;7.238;2022-07-29T07:38:55;6.37;;;2.70;;
1082;SDS011;530;51.448;7.238;2022-07-29T07:41:21;4.83;;;2.63;;
1082;SDS011;530;51.448;7.238;2022-07-29T07:43:47;3.87;;;2.97;;
1082;SDS011;530;51.448;7.238;2022-07-29T07:46:13;3.53;;;3.07;;
1082;SDS011;530;51.448;7.238;2022-07-29T07:48:38;6.67;;;3.37;;
1082;SDS011;530;51.448;7.238;2022-07-29T07:51:04;3.40;;;3.00;;
1082;SDS011;530;51.448;7.238;2022-07-29T07:53:30;4.37;;;2.60;;
1082;SDS011;530;51.448;7.238;2022-07-29T07:55:55;5.60;;;3.20;;
1082;SDS011;530;51.448;7.238;2022-07-29T07:58:21;3.50;;;3.20;;
1082;SDS011;530;51.448;7.238;2022-07-29T08:00:47;5.40;;;3.73;;
1082;SDS011;530;51.448;7.238;2022-07-29T08:03:13;5.33;;;3.20;;
1082;SDS011;530;51.448;7.238;2022-07-29T08:05:39;4.37;;;3.13;;
1082;SDS011;530;51.448;7.238;2022-07-29T08:08:05;5.60;;;3.37;;
1082;SDS011;530;51.448;7.238;2022-07-29T08:10:31;3.50;;;3.20;;
1082;SDS011;530;51.448;7.238;2022-07-29T08:13:16;4.63;;;2.77;;
1082;SDS011;530;51.448;7.238;2022-07-29T08:15:42;3.87;;;3.10;;
1082;SDS011;530;51.448;7.238;2022-07-29T08:18:09;6.17;;;3.00;;
1082;SDS011;530;51.448;7.238;2022-07-29T08:20:36;3.77;;;3.20;;
1082;SDS011;530;51.448;7.238;2022-07-29T08:23:03;9.00;;;3.47;;
1082;SDS011;530;51.448;7.238;2022-07-29T08:25:31;4.20;;;2.77;;
1082;SDS011;530;51.448;7.238;2022-07-29T08:27:57;2.70;;;2.50;;
1082;SDS011;530;51.448;7.238;2022-07-29T08:30:23;4.50;;;2.70;;
1082;SDS011;530;51.448;7.238;2022-07-29T08:32:49;7.33;;;3.37;;
1082;SDS011;530;51.448;7.238;2022-07-29T08:35:18;3.73;;;2.80;;
1082;SDS011;530;51.448;7.238;2022-07-29T08:37:44;5.70;;;3.40;;
1082;SDS011;530;51.448;7.238;2022-07-29T08:40:11;7.43;;;3.20;;
1082;SDS011;530;51.448;7.238;2022-07-29T08:42:36;4.27;;;3.00;;
1082;SDS011;530;51.448;7.238;2022-07-29T08:45:03;2.67;;;2.17;;
1082;SDS011;530;51.448;7.238;2022-07-29T08:47:29;6.93;;;2.93;;
1082;SDS011;530;51.448;7.238;2022-07-29T08:49:55;4.83;;;2.60;;
1082;SDS011;530;51.448;7.238;2022-07-29T08:52:21;6.47;;;3.10;;
1082;SDS011;530;51.448;7.238;2022-07-29T08:54:52;4.37;;;2.77;;
1082;SDS011;530;51.448;7.238;2022-07-29T08:57:19;5.67;;;2.90;;
1082;SDS011;530;51.448;7.238;2022-07-29T08:59:46;5.20;;;2.90;;
1082;SDS011;530;51.448;7.238;2022-07-29T09:02:23;7.60;;;3.00;;
1082;SDS011;530;51.448;7.238;2022-07-29T09:04:53;5.70;;;3.00;;
1082;SDS011;530;51.448;7.238;2022-07-29T09:07:19;7.37;;;2.90;;
1082;SDS011;530;51.448;7.238;2022-07-29T09:09:45;9.70;;;3.47;;
1082;SDS011;530;51.448;7.238;2022-07-29T09:12:11;4.73;;;3.03;;
1082;SDS011;530;51.448;7.238;2022-07-29T09:14:38;7.43;;;2.73;;
1082;SDS011;530;51.448;7.238;2022-07-29T09:17:04;5.40;;;3.37;;
1082;SDS011;530;51.448;7.238;2022-07-29T09:19:31;4.70;;;2.83;;
1082;SDS011;530;51.448;7.238;2022-07-29T09:22:00;4.50;;;3.37;;
1082;SDS011;530;51.448;7.238;2022-07-29T09:27:10;6.60;;;3.20;;
1082;SDS011;530;51.448;7.238;2022-07-29T09:29:47;3.43;;;2.90;;
1082;SDS011;530;51.448;7.238;2022-07-29T09:32:29;5.20;;;3.97;;
1082;SDS011;530;51.448;7.238;2022-07-29T09:37:43;7.97;;;3.63;;
1082;SDS011;530;51.448;7.238;2022-07-29T09:40:13;7.03;;;3.27;;
1082;SDS011;530;51.448;7.238;2022-07-29T09:42:40;6.77;;;3.30;;
1082;SDS011;530;51.448;7.238;2022-07-29T09:45:06;5.50;;;3.33;;
1082;SDS011;530;51.448;7.238;2022-07-29T09:47:43;6.63;;;3.77;;
1082;SDS011;530;51.448;7.238;2022-07-29T09:50:16;7.90;;;4.53;;
1082;SDS011;530;51.448;7.238;2022-07-29T09:52:49;8.30;;;3.67;;
1082;SDS011;530;51.448;7.238;2022-07-29T09:55:16;6.10;;;4.10;;
1082;SDS011;530;51.448;7.238;2022-07-29T09:57:43;4.47;;;3.43;;
1082;SDS011;530;51.448;7.238;2022-07-29T10:00:10;5.07;;;3.17;;
1082;SDS011;530;51.448;7.238;2022-07-29T10:02:45;4.43;;;4.00;;
1082;SDS011;530;51.448;7.238;2022-07-29T10:05:25;4.47;;;3.40;;
1082;SDS011;530;51.448;7.238;2022-07-29T10:07:56;5.87;;;3.83;;
1082;SDS011;530;51.448;7.238;2022-07-29T10:10:32;5.53;;;4.20;;
1082;SDS011;530;51.448;7.238;2022-07-29T10:13:00;7.20;;;4.20;;
1082;SDS011;530;51.448;7.238;2022-07-29T10:15:27;6.13;;;3.67;;
1082;SDS011;530;51.448;7.238;2022-07-29T10:17:55;5.97;;;4.03;;
1082;SDS011;530;51.448;7.238;2022-07-29T10:20:22;7.93;;;4.90;;
1082;SDS011;530;51.448;7.238;2022-07-29T10:22:49;5.67;;;4.77;;
1082;SDS011;530;51.448;7.238;2022-07-29T10:25:16;6.47;;;4.07;;
1082;SDS011;530;51.448;7.238;2022-07-29T10:27:43;6.60;;;4.33;;
1082;SDS011;530;51.448;7.238;2022-07-29T10:30:10;8.70;;;4.33;;
1082;SDS011;530;51.448;7.238;2022-07-29T10:32:39;7.33;;;3.63;;
1082;SDS011;530;51.448;7.238;2022-07-29T10:40:51;6.77;;;4.03;;
1082;SDS011;530;51.448;7.238;2022-07-29T10:43:44;4.60;;;4.20;;
1082;SDS011;530;51.448;7.238;2022-07-29T10:46:12;6.50;;;4.40;;
1082;SDS011;530;51.448;7.238;2022-07-29T11:07:23;6.40;;;5.00;;
1082;SDS011;530;51.448;7.238;2022-07-29T11:15:08;8.23;;;4.43;;
1082;SDS011;530;51.448;7.238;2022-07-29T11:20:39;5.83;;;4.93;;
1082;SDS011;530;51.448;7.238;2022-07-29T11:23:26;6.63;;;5.00;;
1082;SDS011;530;51.448;7.238;2022-07-29T11:29:23;6.53;;;4.33;;
1082;SDS011;530;51.448;7.238;2022-07-29T11:31:44;7.13;;;5.23;;
1082;SDS011;530;51.448;7.238;2022-07-29T11:34:26;7.83;;;5.33;;
1082;SDS011;530;51.448;7.238;2022-07-29T11:44:54;5.83;;;5.27;;
1082;SDS011;530;51.448;7.238;2022-07-29T11:47:24;9.77;;;5.60;;
1082;SDS011;530;51.448;7.238;2022-07-29T11:49:51;8.80;;;5.40;;
1082;SDS011;530;51.448;7.238;2022-07-29T11:52:17;6.87;;;5.17;;
1082;SDS011;530;51.448;7.238;2022-07-29T11:54:44;7.60;;;6.00;;
1082;SDS011;530;51.448;7.238;2022-07-29T11:57:13;10.40;;;5.60;;
1082;SDS011;530;51.448;7.238;2022-07-29T11:59:42;8.67;;;6.50;;
1082;SDS011;530;51.448;7.238;2022-07-29T12:02:09;8.17;;;6.50;;
1082;SDS011;530;51.448;7.238;2022-07-29T12:04:51;5.90;;;4.50;;
1082;SDS011;530;51.448;7.238;2022-07-29T12:07:26;6.40;;;5.80;;
1082;SDS011;530;51.448;7.238;2022-07-29T12:09:53;5.90;;;5.40;;
1082;SDS011;530;51.448;7.238;2022-07-29T12:12:21;9.80;;;5.93;;
1082;SDS011;530;51.448;7.238;2022-07-29T12:14:47;5.03;;;4.57;;
1082;SDS011;530;51.448;7.238;2022-07-29T12:17:29;7.43;;;4.83;;
1082;SDS011;530;51.448;7.238;2022-07-29T12:19:58;7.90;;;6.20;;
1082;SDS011;530;51.448;7.238;2022-07-29T12:25:00;6.73;;;5.60;;
1082;SDS011;530;51.448;7.238;2022-07-29T12:27:27;6.47;;;5.57;;
1082;SDS011;530;51.448;7.238;2022-07-29T12:29:57;5.20;;;4.70;;
1082;SDS011;530;51.448;7.238;2022-07-29T12:32:30;5.30;;;4.20;;
1082;SDS011;530;51.448;7.238;2022-07-29T12:35:08;5.37;;;4.27;;
1082;SDS011;530;51.448;7.238;2022-07-29T12:37:40;5.10;;;4.20;;
1082;SDS011;530;51.448;7.238;2022-07-29T12:40:07;4.27;;;3.87;;
1082;SDS011;530;51.448;7.238;2022-07-29T12:42:35;5.03;;;4.53;;
1082;SDS011;530;51.448;7.238;2022-07-29T12:45:01;6.43;;;4.67;;
1082;SDS011;530;51.448;7.238;2022-07-29T12:47:27;7.03;;;4.40;;
1082;SDS011;530;51.448;7.238;2022-07-29T12:50:09;8.30;;;3.73;;
1082;SDS011;530;51.448;7.238;2022-07-29T12:52:36;5.53;;;5.03;;
1082;SDS011;530;51.448;7.238;2022-07-29T12:55:03;6.30;;;5.00;;
1082;SDS011;530;51.448;7.238;2022-07-29T12:57:29;5.10;;;3.80;;
1082;SDS011;530;51.448;7.238;2022-07-29T13:00:03;7.00;;;4.17;;
1082;SDS011;530;51.448;7.238;2022-07-29T13:02:29;7.47;;;4.63;;
1082;SDS011;530;51.448;7.238;2022-07-29T13:04:59;6.73;;;3.90;;
1082;SDS011;530;51.448;7.238;2022-07-29T13:07:26;7.30;;;3.80;;
1082;SDS011;530;51.448;7.238;2022-07-29T13:09:54;9.93;;;3.80;;
1082;SDS011;530;51.448;7.238;2022-07-29T13:12:40;6.47;;;3.80;;
1082;SDS011;530;51.448;7.238;2022-07-29T13:15:34;3.43;;;3.10;;
1082;SDS011;530;51.448;7.238;2022-07-29T13:18:01;6.43;;;3.93;;
1082;SDS011;530;51.448;7.238;2022-07-29T13:20:29;5.17;;;3.20;;
1082;SDS011;530;51.448;7.238;2022-07-29T13:22:55;5.10;;;3.80;;
1082;SDS011;530;51.448;7.238;2022-07-29T13:25:29;6.40;;;3.83;;
1082;SDS011;530;51.448;7.238;2022-07-29T13:27:57;6.43;;;3.57;;
1082;SDS011;530;51.448;7.238;2022-07-29T13:30:24;5.47;;;3.37;;
1082;SDS011;530;51.448;7.238;2022-07-29T13:32:54;8.13;;;4.00;;
1082;SDS011;530;51.448;7.238;2022-07-29T13:35:20;6.97;;;3.60;;
1082;SDS011;530;51.448;7.238;2022-07-29T13:37:45;4.53;;;3.40;;
1082;SDS011;530;51.448;7.238;2022-07-29T13:40:11;4.30;;;3.13;;
1082;SDS011;530;51.448;7.238;2022-07-29T13:42:38;3.30;;;2.80;;
1082;SDS011;530;51.448;7.238;2022-07-29T13:45:06;4.27;;;3.40;;
1082;SDS011;530;51.448;7.238;2022-07-29T13:47:32;4.33;;;3.53;;
1082;SDS011;530;51.448;7.238;2022-07-29T13:49:58;4.33;;;3.37;;
1082;SDS011;530;51.448;7.238;2022-07-29T13:52:28;7.47;;;3.63;;
1082;SDS011;530;51.448;7.238;2022-07-29T13:54:53;5.00;;;4.50;;
1082;SDS011;530;51.448;7.238;2022-07-29T13:57:20;9.40;;;4.23;;
1082;SDS011;530;51.448;7.238;2022-07-29T13:59:46;6.40;;;4.30;;
1082;SDS011;530;51.448;7.238;2022-07-29T14:02:12;5.03;;;4.10;;
1082;SDS011;530;51.448;7.238;2022-07-29T14:04:38;6.80;;;3.97;;
1082;SDS011;530;51.448;7.238;2022-07-29T14:07:04;4.93;;;3.70;;
1082;SDS011;530;51.448;7.238;2022-07-29T14:09:30;7.10;;;3.83;;
1082;SDS011;530;51.448;7.238;2022-07-29T14:11:56;4.87;;;3.60;;
1082;SDS011;530;51.448;7.238;2022-07-29T14:14:23;4.77;;;4.30;;
1082;SDS011;530;51.448;7.238;2022-07-29T14:16:49;4.80;;;3.47;;
1082;SDS011;530;51.448;7.238;2022-07-29T14:19:14;6.23;;;3.43;;
1082;SDS011;530;51.448;7.238;2022-07-29T14:21:40;5.73;;;3.50;;
1082;SDS011;530;51.448;7.238;2022-07-29T14:24:06;8.67;;;3.40;;
1082;SDS011;530;51.448;7.238;2022-07-29T14:26:32;7.93;;;3.63;;
1082;SDS011;530;51.448;7.238;2022-07-29T14:28:58;5.20;;;3.17;;
1082;SDS011;530;51.448;7.238;2022-07-29T14:31:23;8.50;;;3.50;;
1082;SDS011;530;51.448;7.238;2022-07-29T14:33:49;3.20;;;2.90;;
1082;SDS011;530;51.448;7.238;2022-07-29T14:36:15;7.30;;;3.70;;
1082;SDS011;530;51.448;7.238;2022-07-29T14:38:41;4.73;;;3.50;;
1082;SDS011;530;51.448;7.238;2022-07-29T14:41:07;7.27;;;4.37;;
1082;SDS011;530;51.448;7.238;2022-07-29T14:43:33;3.70;;;3.30;;
1082;SDS011;530;51.448;7.238;2022-07-29T14:46:00;4.40;;;3.47;;
1082;SDS011;530;51.448;7.238;2022-07-29T14:48:26;8.17;;;3.53;;
1082;SDS011;530;51.448;7.238;2022-07-29T14:50:51;6.23;;;3.83;;
1082;SDS011;530;51.448;7.238;2022-07-29T14:53:17;6.07;;;4.10;;
1082;SDS011;530;51.448;7.238;2022-07-29T14:55:43;4.67;;;3.13;;
1082;SDS011;530;51.448;7.238;2022-07-29T14:58:09;4.10;;;3.20;;
1082;SDS011;530;51.448;7.238;2022-07-29T15:00:35;3.93;;;3.03;;
1082;SDS011;530;51.448;7.238;2022-07-29T15:03:02;4.27;;;3.13;;
1082;SDS011;530;51.448;7.238;2022-07-29T15:05:28;8.37;;;3.53;;
1082;SDS011;530;51.448;7.238;2022-07-29T15:07:57;10.20;;;3.67;;
1082;SDS011;530;51.448;7.238;2022-07-29T15:10:23;11.33;;;4.63;;
1082;SDS011;530;51.448;7.238;2022-07-29T15:12:51;4.83;;;2.90;;
1082;SDS011;530;51.448;7.238;2022-07-29T15:15:18;5.27;;;3.50;;
1082;SDS011;530;51.448;7.238;2022-07-29T15:17:43;7.87;;;4.10;;
1082;SDS011;530;51.448;7.238;2022-07-29T15:20:09;5.07;;;3.10;;
1082;SDS011;530;51.448;7.238;2022-07-29T15:22:36;4.50;;;3.13;;
1082;SDS011;530;51.448;7.238;2022-07-29T15:25:03;5.80;;;3.37;;
1082;SDS011;530;51.448;7.238;2022-07-29T15:27:29;5.73;;;3.47;;
1082;SDS011;530;51.448;7.238;2022-07-29T15:29:55;7.20;;;3.30;;
1082;SDS011;530;51.448;7.238;2022-07-29T15:32:21;5.07;;;3.30;;
1082;SDS011;530;51.448;7.238;2022-07-29T15:34:47;5.77;;;3.90;;
1082;SDS011;530;51.448;7.238;2022-07-29T15:37:13;6.33;;;3.30;;
1082;SDS011;530;51.448;7.238;2022-07-29T15:39:39;4.67;;;3.20;;
1082;SDS011;530;51.448;7.238;2022-07-29T15:42:05;4.90;;;3.40;;
1082;SDS011;530;51.448;7.238;2022-07-29T15:44:31;5.33;;;3.53;;
1082;SDS011;530;51.448;7.238;2022-07-29T15:46:57;4.40;;;3.67;;
1082;SDS011;530;51.448;7.238;2022-07-29T15:52:01;6.30;;;3.37;;
1082;SDS011;530;51.448;7.238;2022-07-29T15:54:34;6.57;;;3.37;;
1082;SDS011;530;51.448;7.238;2022-07-29T15:57:06;3.67;;;3.23;;
1082;SDS011;530;51.448;7.238;2022-07-29T15:59:41;5.80;;;3.57;;
1082;SDS011;530;51.448;7.238;2022-07-29T16:02:07;6.17;;;3.10;;
1082;SDS011;530;51.448;7.238;2022-07-29T16:04:33;4.70;;;3.70;;
1082;SDS011;530;51.448;7.238;2022-07-29T16:06:59;4.67;;;3.80;;
1082;SDS011;530;51.448;7.238;2022-07-29T16:09:25;5.40;;;4.70;;
1082;SDS011;530;51.448;7.238;2022-07-29T16:11:51;6.17;;;4.63;;
1082;SDS011;530;51.448;7.238;2022-07-29T16:14:18;4.50;;;3.97;;
1082;SDS011;530;51.448;7.238;2022-07-29T16:16:45;4.77;;;4.37;;
1082;SDS011;530;51.448;7.238;2022-07-29T16:19:10;5.97;;;3.80;;
1082;SDS011;530;51.448;7.238;2022-07-29T16:21:37;6.33;;;3.80;;
1082;SDS011;530;51.448;7.238;2022-07-29T16:24:03;5.30;;;4.20;;
1082;SDS011;530;51.448;7.238;2022-07-29T16:26:30;5.53;;;4.63;;
1082;SDS011;530;51.448;7.238;2022-07-29T16:28:56;5.37;;;4.33;;
1082;SDS011;530;51.448;7.238;2022-07-29T16:31:22;7.47;;;4.80;;
1082;SDS011;530;51.448;7.238;2022-07-29T16:33:54;7.57;;;4.10;;
1082;SDS011;530;51.448;7.238;2022-07-29T16:36:20;10.00;;;5.40;;
1082;SDS011;530;51.448;7.238;2022-07-29T16:38:46;7.20;;;5.20;;
1082;SDS011;530;51.448;7.238;2022-07-29T16:41:12;7.23;;;4.53;;
1082;SDS011;530;51.448;7.238;2022-07-29T16:43:38;8.63;;;4.90;;
1082;SDS011;530;51.448;7.238;2022-07-29T16:46:06;8.10;;;5.00;;